sensor_id;sensor_type;location;lat;lon;timestamp;temperature;humidity
9564;DHT22;4820;50.870;4.702;2022-09-03T00:00:34;19.70;82.70
9564;DHT22;4820;50.870;4.702;2022-09-03T00:03:30;19.70;82.90
9564;DHT22;4820;50.870;4.702;2022-09-03T00:06:35;19.70;83.00
9564;DHT22;4820;50.870;4.702;2022-09-03T00:09:12;19.70;83.00
9564;DHT22;4820;50.870;4.702;2022-09-03T00:11:50;19.70;82.90
9564;DHT22;4820;50.870;4.702;2022-09-03T00:14:25;19.70;82.90
9564;DHT22;4820;50.870;4.702;2022-09-03T00:17:07;19.70;82.80
9564;DHT22;4820;50.870;4.702;2022-09-03T00:19:43;19.70;82.80
9564;DHT22;4820;50.870;4.702;2022-09-03T00:22:18;19.70;82.80
9564;DHT22;4820;50.870;4.702;2022-09-03T00:24:46;19.70;82.90
9564;DHT22;4820;50.870;4.702;2022-09-03T00:27:17;19.70;82.90
9564;DHT22;4820;50.870;4.702;2022-09-03T00:30:00;19.70;83.10
9564;DHT22;4820;50.870;4.702;2022-09-03T00:37:52;19.60;83.10
9564;DHT22;4820;50.870;4.702;2022-09-03T00:40:37;19.60;83.30
9564;DHT22;4820;50.870;4.702;2022-09-03T00:46:22;19.60;83.70
9564;DHT22;4820;50.870;4.702;2022-09-03T00:54:29;19.60;84.40
9564;DHT22;4820;50.870;4.702;2022-09-03T01:00:16;19.60;84.50
9564;DHT22;4820;50.870;4.702;2022-09-03T01:31:03;19.70;84.30
9564;DHT22;4820;50.870;4.702;2022-09-03T01:36:28;19.70;84.20
9564;DHT22;4820;50.870;4.702;2022-09-03T01:39:02;19.80;84.10
9564;DHT22;4820;50.870;4.702;2022-09-03T01:45:08;19.90;83.60
9564;DHT22;4820;50.870;4.702;2022-09-03T01:50:28;19.90;83.90
9564;DHT22;4820;50.870;4.702;2022-09-03T01:53:06;19.90;83.80
9564;DHT22;4820;50.870;4.702;2022-09-03T01:56:06;19.90;83.70
9564;DHT22;4820;50.870;4.702;2022-09-03T01:58:43;19.90;83.60
9564;DHT22;4820;50.870;4.702;2022-09-03T02:01:22;19.90;83.60
9564;DHT22;4820;50.870;4.702;2022-09-03T02:03:50;20.00;83.60
9564;DHT22;4820;50.870;4.702;2022-09-03T02:06:16;20.00;83.70
9564;DHT22;4820;50.870;4.702;2022-09-03T02:08:46;20.00;83.60
9564;DHT22;4820;50.870;4.702;2022-09-03T02:11:11;20.00;83.70
9564;DHT22;4820;50.870;4.702;2022-09-03T02:13:41;19.90;84.60
9564;DHT22;4820;50.870;4.702;2022-09-03T02:16:14;19.90;84.00
9564;DHT22;4820;50.870;4.702;2022-09-03T02:18:44;19.90;84.00
9564;DHT22;4820;50.870;4.702;2022-09-03T02:21:13;19.90;84.00
9564;DHT22;4820;50.870;4.702;2022-09-03T02:23:41;19.80;84.20
9564;DHT22;4820;50.870;4.702;2022-09-03T02:26:07;19.80;84.50
9564;DHT22;4820;50.870;4.702;2022-09-03T02:28:33;19.70;84.50
9564;DHT22;4820;50.870;4.702;2022-09-03T02:30:59;19.70;84.70
9564;DHT22;4820;50.870;4.702;2022-09-03T02:33:27;19.70;84.90
9564;DHT22;4820;50.870;4.702;2022-09-03T02:35:53;19.70;85.00
9564;DHT22;4820;50.870;4.702;2022-09-03T02:38:23;19.70;85.30
9564;DHT22;4820;50.870;4.702;2022-09-03T02:40:53;19.70;85.40
9564;DHT22;4820;50.870;4.702;2022-09-03T02:43:29;19.70;85.40
9564;DHT22;4820;50.870;4.702;2022-09-03T02:46:01;19.70;85.40
9564;DHT22;4820;50.870;4.702;2022-09-03T02:48:27;19.70;85.40
9564;DHT22;4820;50.870;4.702;2022-09-03T02:50:54;19.60;85.30
9564;DHT22;4820;50.870;4.702;2022-09-03T02:53:19;19.60;85.50
9564;DHT22;4820;50.870;4.702;2022-09-03T02:55:45;19.60;85.60
9564;DHT22;4820;50.870;4.702;2022-09-03T02:58:12;19.60;85.80
9564;DHT22;4820;50.870;4.702;2022-09-03T03:00:38;19.50;85.60
9564;DHT22;4820;50.870;4.702;2022-09-03T03:03:05;19.50;85.80
9564;DHT22;4820;50.870;4.702;2022-09-03T03:05:51;19.60;85.70
9564;DHT22;4820;50.870;4.702;2022-09-03T03:08:17;19.60;85.80
9564;DHT22;4820;50.870;4.702;2022-09-03T03:10:50;19.60;85.90
9564;DHT22;4820;50.870;4.702;2022-09-03T03:13:17;19.50;86.00
9564;DHT22;4820;50.870;4.702;2022-09-03T03:15:42;19.50;86.00
9564;DHT22;4820;50.870;4.702;2022-09-03T03:18:09;19.50;86.10
9564;DHT22;4820;50.870;4.702;2022-09-03T03:20:38;19.50;86.10
9564;DHT22;4820;50.870;4.702;2022-09-03T03:23:05;19.60;86.30
9564;DHT22;4820;50.870;4.702;2022-09-03T03:25:33;19.70;86.30
9564;DHT22;4820;50.870;4.702;2022-09-03T03:27:59;19.70;86.20
9564;DHT22;4820;50.870;4.702;2022-09-03T03:30:26;19.70;86.20
9564;DHT22;4820;50.870;4.702;2022-09-03T03:32:53;19.60;86.40
9564;DHT22;4820;50.870;4.702;2022-09-03T03:35:19;19.60;86.50
9564;DHT22;4820;50.870;4.702;2022-09-03T03:37:45;19.60;86.60
9564;DHT22;4820;50.870;4.702;2022-09-03T03:40:11;19.60;86.60
9564;DHT22;4820;50.870;4.702;2022-09-03T03:42:37;19.80;86.70
9564;DHT22;4820;50.870;4.702;2022-09-03T03:45:05;19.80;86.40
9564;DHT22;4820;50.870;4.702;2022-09-03T03:47:32;19.80;86.30
9564;DHT22;4820;50.870;4.702;2022-09-03T03:49:59;19.90;86.30
9564;DHT22;4820;50.870;4.702;2022-09-03T03:52:25;19.90;86.20
9564;DHT22;4820;50.870;4.702;2022-09-03T03:54:52;19.90;86.20
9564;DHT22;4820;50.870;4.702;2022-09-03T03:57:19;19.80;86.30
9564;DHT22;4820;50.870;4.702;2022-09-03T03:59:46;19.80;86.60
9564;DHT22;4820;50.870;4.702;2022-09-03T04:02:12;19.70;86.80
9564;DHT22;4820;50.870;4.702;2022-09-03T04:04:38;19.70;87.10
9564;DHT22;4820;50.870;4.702;2022-09-03T04:07:04;19.60;87.30
9564;DHT22;4820;50.870;4.702;2022-09-03T04:09:30;19.60;87.60
9564;DHT22;4820;50.870;4.702;2022-09-03T04:11:55;19.50;87.70
9564;DHT22;4820;50.870;4.702;2022-09-03T04:14:24;19.50;88.00
9564;DHT22;4820;50.870;4.702;2022-09-03T04:16:52;19.50;88.00
9564;DHT22;4820;50.870;4.702;2022-09-03T04:19:19;19.50;88.00
9564;DHT22;4820;50.870;4.702;2022-09-03T04:21:45;19.50;87.90
9564;DHT22;4820;50.870;4.702;2022-09-03T04:24:11;19.50;88.00
9564;DHT22;4820;50.870;4.702;2022-09-03T04:26:37;19.50;88.00
9564;DHT22;4820;50.870;4.702;2022-09-03T04:29:05;19.40;88.10
9564;DHT22;4820;50.870;4.702;2022-09-03T04:31:32;19.40;88.20
9564;DHT22;4820;50.870;4.702;2022-09-03T04:33:58;19.40;88.30
9564;DHT22;4820;50.870;4.702;2022-09-03T04:36:25;19.40;88.30
9564;DHT22;4820;50.870;4.702;2022-09-03T04:38:53;19.40;88.40
9564;DHT22;4820;50.870;4.702;2022-09-03T04:41:25;19.50;88.30
9564;DHT22;4820;50.870;4.702;2022-09-03T04:43:56;19.50;88.40
9564;DHT22;4820;50.870;4.702;2022-09-03T04:46:24;19.60;88.70
9564;DHT22;4820;50.870;4.702;2022-09-03T04:48:53;19.60;88.80
9564;DHT22;4820;50.870;4.702;2022-09-03T04:51:21;19.50;89.00
9564;DHT22;4820;50.870;4.702;2022-09-03T04:53:53;19.40;88.90
9564;DHT22;4820;50.870;4.702;2022-09-03T04:56:21;19.40;89.30
9564;DHT22;4820;50.870;4.702;2022-09-03T04:58:53;19.40;90.20
9564;DHT22;4820;50.870;4.702;2022-09-03T05:01:22;19.40;91.70
9564;DHT22;4820;50.870;4.702;2022-09-03T05:03:47;19.30;92.50
9564;DHT22;4820;50.870;4.702;2022-09-03T05:06:14;19.30;92.40
9564;DHT22;4820;50.870;4.702;2022-09-03T05:08:42;19.20;92.20
9564;DHT22;4820;50.870;4.702;2022-09-03T05:11:09;19.20;92.40
9564;DHT22;4820;50.870;4.702;2022-09-03T05:13:35;19.10;92.10
9564;DHT22;4820;50.870;4.702;2022-09-03T05:16:08;19.10;92.30
9564;DHT22;4820;50.870;4.702;2022-09-03T05:18:36;19.10;92.20
9564;DHT22;4820;50.870;4.702;2022-09-03T05:21:13;19.10;92.20
9564;DHT22;4820;50.870;4.702;2022-09-03T05:23:42;19.10;92.30
9564;DHT22;4820;50.870;4.702;2022-09-03T05:26:15;19.10;92.30
9564;DHT22;4820;50.870;4.702;2022-09-03T05:28:42;19.10;92.10
9564;DHT22;4820;50.870;4.702;2022-09-03T05:31:10;19.10;92.00
9564;DHT22;4820;50.870;4.702;2022-09-03T05:33:39;19.10;91.90
9564;DHT22;4820;50.870;4.702;2022-09-03T05:36:09;19.10;91.60
9564;DHT22;4820;50.870;4.702;2022-09-03T05:38:36;19.20;91.30
9564;DHT22;4820;50.870;4.702;2022-09-03T05:41:03;19.20;91.00
9564;DHT22;4820;50.870;4.702;2022-09-03T05:43:30;19.20;90.80
9564;DHT22;4820;50.870;4.702;2022-09-03T05:46:01;19.20;90.90
9564;DHT22;4820;50.870;4.702;2022-09-03T05:48:32;19.20;90.90
9564;DHT22;4820;50.870;4.702;2022-09-03T05:51:04;19.20;90.90
9564;DHT22;4820;50.870;4.702;2022-09-03T05:53:33;19.10;90.90
9564;DHT22;4820;50.870;4.702;2022-09-03T05:56:00;19.20;91.00
9564;DHT22;4820;50.870;4.702;2022-09-03T05:58:31;19.20;91.70
9564;DHT22;4820;50.870;4.702;2022-09-03T06:00:58;19.20;92.30
9564;DHT22;4820;50.870;4.702;2022-09-03T06:03:24;19.20;92.60
9564;DHT22;4820;50.870;4.702;2022-09-03T06:05:51;19.20;92.90
9564;DHT22;4820;50.870;4.702;2022-09-03T06:08:17;19.10;92.20
9564;DHT22;4820;50.870;4.702;2022-09-03T06:10:44;19.10;91.90
9564;DHT22;4820;50.870;4.702;2022-09-03T06:13:10;19.10;92.10
9564;DHT22;4820;50.870;4.702;2022-09-03T06:15:36;19.00;91.80
9564;DHT22;4820;50.870;4.702;2022-09-03T06:18:02;19.00;92.40
9564;DHT22;4820;50.870;4.702;2022-09-03T06:20:27;19.20;92.80
9564;DHT22;4820;50.870;4.702;2022-09-03T06:22:54;19.20;92.70
9564;DHT22;4820;50.870;4.702;2022-09-03T06:25:20;19.20;92.60
9564;DHT22;4820;50.870;4.702;2022-09-03T06:27:46;19.30;92.50
9564;DHT22;4820;50.870;4.702;2022-09-03T06:30:13;19.20;92.50
9564;DHT22;4820;50.870;4.702;2022-09-03T06:32:49;19.30;92.40
9564;DHT22;4820;50.870;4.702;2022-09-03T06:35:17;19.40;92.30
9564;DHT22;4820;50.870;4.702;2022-09-03T06:37:43;19.50;92.20
9564;DHT22;4820;50.870;4.702;2022-09-03T06:40:11;19.50;92.10
9564;DHT22;4820;50.870;4.702;2022-09-03T06:42:38;19.60;92.10
9564;DHT22;4820;50.870;4.702;2022-09-03T06:45:09;19.70;91.90
9564;DHT22;4820;50.870;4.702;2022-09-03T06:47:35;19.80;91.90
9564;DHT22;4820;50.870;4.702;2022-09-03T06:50:02;19.90;91.90
9564;DHT22;4820;50.870;4.702;2022-09-03T06:52:28;20.00;91.90
9564;DHT22;4820;50.870;4.702;2022-09-03T06:54:54;20.00;91.90
9564;DHT22;4820;50.870;4.702;2022-09-03T06:57:21;20.10;92.00
9564;DHT22;4820;50.870;4.702;2022-09-03T06:59:46;20.20;92.10
9564;DHT22;4820;50.870;4.702;2022-09-03T07:02:14;20.20;92.10
9564;DHT22;4820;50.870;4.702;2022-09-03T07:04:40;20.20;92.20
9564;DHT22;4820;50.870;4.702;2022-09-03T07:07:06;20.30;92.10
9564;DHT22;4820;50.870;4.702;2022-09-03T07:09:39;20.40;92.10
9564;DHT22;4820;50.870;4.702;2022-09-03T07:12:05;20.50;91.90
9564;DHT22;4820;50.870;4.702;2022-09-03T07:14:31;20.60;92.00
9564;DHT22;4820;50.870;4.702;2022-09-03T07:16:57;20.60;91.90
9564;DHT22;4820;50.870;4.702;2022-09-03T07:19:23;20.60;91.90
9564;DHT22;4820;50.870;4.702;2022-09-03T07:21:48;20.70;92.10
9564;DHT22;4820;50.870;4.702;2022-09-03T07:24:14;20.80;92.00
9564;DHT22;4820;50.870;4.702;2022-09-03T07:26:41;20.90;92.20
9564;DHT22;4820;50.870;4.702;2022-09-03T07:29:09;20.90;91.80
9564;DHT22;4820;50.870;4.702;2022-09-03T07:31:39;21.00;91.70
9564;DHT22;4820;50.870;4.702;2022-09-03T07:34:09;21.20;91.70
9564;DHT22;4820;50.870;4.702;2022-09-03T07:36:44;21.30;91.50
9564;DHT22;4820;50.870;4.702;2022-09-03T07:39:12;21.40;91.40
9564;DHT22;4820;50.870;4.702;2022-09-03T07:41:39;21.60;91.30
9564;DHT22;4820;50.870;4.702;2022-09-03T07:44:14;21.70;91.10
9564;DHT22;4820;50.870;4.702;2022-09-03T07:46:40;21.80;91.10
9564;DHT22;4820;50.870;4.702;2022-09-03T07:49:07;21.80;91.10
9564;DHT22;4820;50.870;4.702;2022-09-03T07:51:36;22.00;91.10
9564;DHT22;4820;50.870;4.702;2022-09-03T07:54:06;22.10;91.00
9564;DHT22;4820;50.870;4.702;2022-09-03T07:56:34;22.30;91.00
9564;DHT22;4820;50.870;4.702;2022-09-03T07:59:00;22.40;90.90
9564;DHT22;4820;50.870;4.702;2022-09-03T08:01:27;22.40;90.90
9564;DHT22;4820;50.870;4.702;2022-09-03T08:03:54;22.30;90.80
9564;DHT22;4820;50.870;4.702;2022-09-03T08:06:22;22.30;90.90
9564;DHT22;4820;50.870;4.702;2022-09-03T08:08:53;22.20;91.10
9564;DHT22;4820;50.870;4.702;2022-09-03T08:11:19;22.20;91.20
9564;DHT22;4820;50.870;4.702;2022-09-03T08:14:07;22.20;91.30
9564;DHT22;4820;50.870;4.702;2022-09-03T08:16:38;22.10;91.30
9564;DHT22;4820;50.870;4.702;2022-09-03T08:19:04;22.10;91.20
9564;DHT22;4820;50.870;4.702;2022-09-03T08:21:30;22.20;91.10
9564;DHT22;4820;50.870;4.702;2022-09-03T08:23:56;22.20;91.10
9564;DHT22;4820;50.870;4.702;2022-09-03T08:26:30;22.10;91.60
9564;DHT22;4820;50.870;4.702;2022-09-03T08:28:56;22.00;91.40
9564;DHT22;4820;50.870;4.702;2022-09-03T08:31:23;22.00;91.60
9564;DHT22;4820;50.870;4.702;2022-09-03T08:33:56;22.20;91.60
9564;DHT22;4820;50.870;4.702;2022-09-03T08:36:27;22.40;91.40
9564;DHT22;4820;50.870;4.702;2022-09-03T08:38:58;22.60;91.30
9564;DHT22;4820;50.870;4.702;2022-09-03T08:41:47;22.70;91.40
9564;DHT22;4820;50.870;4.702;2022-09-03T08:44:24;22.80;91.60
9564;DHT22;4820;50.870;4.702;2022-09-03T08:47:12;22.90;91.70
9564;DHT22;4820;50.870;4.702;2022-09-03T08:52:46;23.20;91.70
9564;DHT22;4820;50.870;4.702;2022-09-03T09:00:58;23.40;92.20
9564;DHT22;4820;50.870;4.702;2022-09-03T09:05:53;23.50;92.40
9564;DHT22;4820;50.870;4.702;2022-09-03T09:17:03;23.90;92.20
9564;DHT22;4820;50.870;4.702;2022-09-03T09:19:59;24.00;92.20
9564;DHT22;4820;50.870;4.702;2022-09-03T09:22:38;24.10;92.10
9564;DHT22;4820;50.870;4.702;2022-09-03T09:25:20;24.10;92.50
9564;DHT22;4820;50.870;4.702;2022-09-03T09:28:16;23.90;92.60
9564;DHT22;4820;50.870;4.702;2022-09-03T09:30:44;23.80;92.90
9564;DHT22;4820;50.870;4.702;2022-09-03T09:33:12;23.80;92.90
9564;DHT22;4820;50.870;4.702;2022-09-03T09:35:38;23.90;93.00
9564;DHT22;4820;50.870;4.702;2022-09-03T09:38:07;23.80;93.00
9564;DHT22;4820;50.870;4.702;2022-09-03T09:40:36;23.90;93.40
9564;DHT22;4820;50.870;4.702;2022-09-03T09:43:08;23.90;93.10
9564;DHT22;4820;50.870;4.702;2022-09-03T09:45:39;24.00;93.20
9564;DHT22;4820;50.870;4.702;2022-09-03T09:51:08;24.30;93.30
9564;DHT22;4820;50.870;4.702;2022-09-03T09:53:34;24.50;93.20
9564;DHT22;4820;50.870;4.702;2022-09-03T09:56:00;24.70;93.20
9564;DHT22;4820;50.870;4.702;2022-09-03T09:58:32;24.70;93.00
9564;DHT22;4820;50.870;4.702;2022-09-03T10:01:27;24.90;92.90
9564;DHT22;4820;50.870;4.702;2022-09-03T10:03:58;25.00;92.80
9564;DHT22;4820;50.870;4.702;2022-09-03T10:06:29;25.30;92.60
9564;DHT22;4820;50.870;4.702;2022-09-03T10:09:16;25.30;92.50
9564;DHT22;4820;50.870;4.702;2022-09-03T10:11:46;25.00;92.80
9564;DHT22;4820;50.870;4.702;2022-09-03T10:14:26;24.90;93.20
9564;DHT22;4820;50.870;4.702;2022-09-03T10:17:08;24.90;93.20
9564;DHT22;4820;50.870;4.702;2022-09-03T10:19:46;25.00;93.00
9564;DHT22;4820;50.870;4.702;2022-09-03T10:22:39;24.90;93.10
9564;DHT22;4820;50.870;4.702;2022-09-03T10:25:09;24.90;93.10
9564;DHT22;4820;50.870;4.702;2022-09-03T10:27:35;24.90;93.30
9564;DHT22;4820;50.870;4.702;2022-09-03T10:30:05;25.10;93.20
9564;DHT22;4820;50.870;4.702;2022-09-03T10:32:44;25.10;93.30
9564;DHT22;4820;50.870;4.702;2022-09-03T10:35:29;25.20;93.20
9564;DHT22;4820;50.870;4.702;2022-09-03T10:43:43;25.40;92.80
9564;DHT22;4820;50.870;4.702;2022-09-03T10:46:15;25.40;92.60
9564;DHT22;4820;50.870;4.702;2022-09-03T10:51:42;25.50;92.80
9564;DHT22;4820;50.870;4.702;2022-09-03T10:57:31;25.20;92.60
9564;DHT22;4820;50.870;4.702;2022-09-03T11:00:09;25.00;92.90
9564;DHT22;4820;50.870;4.702;2022-09-03T11:05:47;24.70;93.60
9564;DHT22;4820;50.870;4.702;2022-09-03T11:08:26;24.70;93.60
9564;DHT22;4820;50.870;4.702;2022-09-03T11:11:08;24.70;93.60
9564;DHT22;4820;50.870;4.702;2022-09-03T11:13:40;24.80;93.80
9564;DHT22;4820;50.870;4.702;2022-09-03T11:16:25;24.90;93.70
9564;DHT22;4820;50.870;4.702;2022-09-03T11:19:06;24.90;93.60
9564;DHT22;4820;50.870;4.702;2022-09-03T11:21:37;25.10;93.40
9564;DHT22;4820;50.870;4.702;2022-09-03T11:24:24;25.30;93.10
9564;DHT22;4820;50.870;4.702;2022-09-03T11:26:56;25.50;93.20
9564;DHT22;4820;50.870;4.702;2022-09-03T11:32:53;25.50;92.30
9564;DHT22;4820;50.870;4.702;2022-09-03T11:37:58;25.60;92.50
9564;DHT22;4820;50.870;4.702;2022-09-03T11:40:38;25.70;92.20
9564;DHT22;4820;50.870;4.702;2022-09-03T11:43:07;25.80;91.90
9564;DHT22;4820;50.870;4.702;2022-09-03T11:45:38;25.80;92.00
9564;DHT22;4820;50.870;4.702;2022-09-03T11:51:04;25.90;92.30
9564;DHT22;4820;50.870;4.702;2022-09-03T11:53:41;26.00;92.10
9564;DHT22;4820;50.870;4.702;2022-09-03T11:56:17;26.10;91.70
9564;DHT22;4820;50.870;4.702;2022-09-03T11:58:43;26.10;91.70
9564;DHT22;4820;50.870;4.702;2022-09-03T12:01:11;26.10;91.40
9564;DHT22;4820;50.870;4.702;2022-09-03T12:17:47;26.20;89.90
9564;DHT22;4820;50.870;4.702;2022-09-03T12:20:34;26.20;90.00
9564;DHT22;4820;50.870;4.702;2022-09-03T12:23:01;26.30;90.30
9564;DHT22;4820;50.870;4.702;2022-09-03T12:25:31;26.40;90.80
9564;DHT22;4820;50.870;4.702;2022-09-03T12:28:00;26.30;90.80
9564;DHT22;4820;50.870;4.702;2022-09-03T12:30:29;26.10;90.60
9564;DHT22;4820;50.870;4.702;2022-09-03T12:33:06;26.10;91.20
9564;DHT22;4820;50.870;4.702;2022-09-03T12:35:33;26.00;91.40
9564;DHT22;4820;50.870;4.702;2022-09-03T12:37:59;26.10;91.40
9564;DHT22;4820;50.870;4.702;2022-09-03T12:40:28;26.10;91.60
9564;DHT22;4820;50.870;4.702;2022-09-03T12:42:54;26.20;92.10
9564;DHT22;4820;50.870;4.702;2022-09-03T12:45:23;26.30;91.90
9564;DHT22;4820;50.870;4.702;2022-09-03T12:47:52;26.50;91.00
9564;DHT22;4820;50.870;4.702;2022-09-03T12:50:23;26.50;90.80
9564;DHT22;4820;50.870;4.702;2022-09-03T12:52:52;26.60;90.90
9564;DHT22;4820;50.870;4.702;2022-09-03T12:55:42;26.70;90.40
9564;DHT22;4820;50.870;4.702;2022-09-03T12:58:31;26.80;90.80
9564;DHT22;4820;50.870;4.702;2022-09-03T13:03:56;26.90;90.90
9564;DHT22;4820;50.870;4.702;2022-09-03T13:06:41;27.00;90.90
9564;DHT22;4820;50.870;4.702;2022-09-03T13:09:09;27.10;91.00
9564;DHT22;4820;50.870;4.702;2022-09-03T13:11:35;27.20;91.00
9564;DHT22;4820;50.870;4.702;2022-09-03T13:14:05;27.10;91.20
9564;DHT22;4820;50.870;4.702;2022-09-03T13:21:58;27.10;91.20
9564;DHT22;4820;50.870;4.702;2022-09-03T13:29:54;27.40;90.20
9564;DHT22;4820;50.870;4.702;2022-09-03T13:32:46;27.50;90.00
9564;DHT22;4820;50.870;4.702;2022-09-03T13:35:38;27.60;90.10
9564;DHT22;4820;50.870;4.702;2022-09-03T13:40:44;28.00;89.30
9564;DHT22;4820;50.870;4.702;2022-09-03T13:45:50;28.10;88.30
9564;DHT22;4820;50.870;4.702;2022-09-03T13:48:38;28.10;88.70
9564;DHT22;4820;50.870;4.702;2022-09-03T13:51:40;28.00;89.20
9564;DHT22;4820;50.870;4.702;2022-09-03T14:08:19;27.60;89.70
9564;DHT22;4820;50.870;4.702;2022-09-03T14:11:22;27.60;89.80
9564;DHT22;4820;50.870;4.702;2022-09-03T14:19:00;27.30;90.00
9564;DHT22;4820;50.870;4.702;2022-09-03T14:27:00;27.20;90.30
9564;DHT22;4820;50.870;4.702;2022-09-03T14:29:32;27.40;90.40
9564;DHT22;4820;50.870;4.702;2022-09-03T14:32:08;27.40;90.20
9564;DHT22;4820;50.870;4.702;2022-09-03T15:00:13;27.00;90.60
9564;DHT22;4820;50.870;4.702;2022-09-03T15:10:46;27.50;90.40
9564;DHT22;4820;50.870;4.702;2022-09-03T15:13:41;27.50;89.70
9564;DHT22;4820;50.870;4.702;2022-09-03T15:26:46;27.50;90.60
9564;DHT22;4820;50.870;4.702;2022-09-03T15:29:22;27.70;89.90
9564;DHT22;4820;50.870;4.702;2022-09-03T15:40:23;28.30;87.70
9564;DHT22;4820;50.870;4.702;2022-09-03T15:42:54;28.00;88.90
9564;DHT22;4820;50.870;4.702;2022-09-03T15:48:55;27.70;89.30
9564;DHT22;4820;50.870;4.702;2022-09-03T15:52:00;27.70;89.80
9564;DHT22;4820;50.870;4.702;2022-09-03T15:54:41;27.50;89.40
9564;DHT22;4820;50.870;4.702;2022-09-03T15:57:12;27.50;89.30
9564;DHT22;4820;50.870;4.702;2022-09-03T16:00:01;27.30;89.40
9564;DHT22;4820;50.870;4.702;2022-09-03T16:02:41;27.10;90.10
9564;DHT22;4820;50.870;4.702;2022-09-03T16:05:19;26.90;90.50
9564;DHT22;4820;50.870;4.702;2022-09-03T16:08:06;26.70;90.80
9564;DHT22;4820;50.870;4.702;2022-09-03T16:11:02;26.60;91.00
9564;DHT22;4820;50.870;4.702;2022-09-03T16:13:46;26.50;91.10
9564;DHT22;4820;50.870;4.702;2022-09-03T16:21:57;26.30;91.30
9564;DHT22;4820;50.870;4.702;2022-09-03T16:29:40;26.10;92.90
9564;DHT22;4820;50.870;4.702;2022-09-03T16:32:22;26.10;93.10
9564;DHT22;4820;50.870;4.702;2022-09-03T16:40:47;26.20;93.10
9564;DHT22;4820;50.870;4.702;2022-09-03T16:43:38;26.20;93.10
9564;DHT22;4820;50.870;4.702;2022-09-03T16:57:31;24.90;96.50
9564;DHT22;4820;50.870;4.702;2022-09-03T17:00:14;24.90;96.50
9564;DHT22;4820;50.870;4.702;2022-09-03T17:06:12;24.80;97.00
9564;DHT22;4820;50.870;4.702;2022-09-03T17:17:08;24.50;96.70
9564;DHT22;4820;50.870;4.702;2022-09-03T17:24:54;24.40;95.90
9564;DHT22;4820;50.870;4.702;2022-09-03T17:30:37;24.30;96.40
9564;DHT22;4820;50.870;4.702;2022-09-03T17:36:22;24.00;96.80
9564;DHT22;4820;50.870;4.702;2022-09-03T17:44:47;24.10;96.70
9564;DHT22;4820;50.870;4.702;2022-09-03T17:53:03;24.00;96.80
9564;DHT22;4820;50.870;4.702;2022-09-03T17:55:35;23.90;96.80
9564;DHT22;4820;50.870;4.702;2022-09-03T17:58:23;23.90;96.90
9564;DHT22;4820;50.870;4.702;2022-09-03T18:03:31;23.80;97.00
9564;DHT22;4820;50.870;4.702;2022-09-03T18:12:14;23.70;97.50
9564;DHT22;4820;50.870;4.702;2022-09-03T18:14:55;23.70;97.60
9564;DHT22;4820;50.870;4.702;2022-09-03T18:17:43;23.70;97.70
9564;DHT22;4820;50.870;4.702;2022-09-03T18:20:12;23.70;97.80
9564;DHT22;4820;50.870;4.702;2022-09-03T18:23:08;23.70;97.70
9564;DHT22;4820;50.870;4.702;2022-09-03T18:26:00;23.60;97.90
9564;DHT22;4820;50.870;4.702;2022-09-03T18:29:01;23.60;97.90
9564;DHT22;4820;50.870;4.702;2022-09-03T18:31:46;23.70;98.00
9564;DHT22;4820;50.870;4.702;2022-09-03T18:34:34;23.80;98.40
9564;DHT22;4820;50.870;4.702;2022-09-03T18:37:21;23.80;98.40
9564;DHT22;4820;50.870;4.702;2022-09-03T18:40:08;23.80;98.20
9564;DHT22;4820;50.870;4.702;2022-09-03T18:43:08;23.70;98.30
9564;DHT22;4820;50.870;4.702;2022-09-03T18:46:04;23.70;98.10
9564;DHT22;4820;50.870;4.702;2022-09-03T18:52:03;23.60;98.00
9564;DHT22;4820;50.870;4.702;2022-09-03T19:07:03;23.20;99.00
9564;DHT22;4820;50.870;4.702;2022-09-03T19:21:58;22.70;99.90
9564;DHT22;4820;50.870;4.702;2022-09-03T19:24:51;22.70;99.90
9564;DHT22;4820;50.870;4.702;2022-09-03T19:31:04;22.60;99.90
9564;DHT22;4820;50.870;4.702;2022-09-03T19:37:12;22.70;99.90
9564;DHT22;4820;50.870;4.702;2022-09-03T19:43:06;22.60;99.90
9564;DHT22;4820;50.870;4.702;2022-09-03T19:55:17;22.30;99.90
9564;DHT22;4820;50.870;4.702;2022-09-03T19:58:06;22.30;99.90
9564;DHT22;4820;50.870;4.702;2022-09-03T20:00:51;22.20;99.90
9564;DHT22;4820;50.870;4.702;2022-09-03T20:03:35;22.00;99.90
9564;DHT22;4820;50.870;4.702;2022-09-03T20:06:20;21.90;99.90
9564;DHT22;4820;50.870;4.702;2022-09-03T20:09:12;21.90;99.90
9564;DHT22;4820;50.870;4.702;2022-09-03T20:12:04;21.90;99.90
9564;DHT22;4820;50.870;4.702;2022-09-03T20:14:34;21.80;99.90
9564;DHT22;4820;50.870;4.702;2022-09-03T20:20:02;21.70;99.90
9564;DHT22;4820;50.870;4.702;2022-09-03T20:23:02;21.70;99.90
9564;DHT22;4820;50.870;4.702;2022-09-03T20:25:59;21.70;99.90
9564;DHT22;4820;50.870;4.702;2022-09-03T20:31:36;21.70;99.90
9564;DHT22;4820;50.870;4.702;2022-09-03T20:39:42;22.10;99.90
9564;DHT22;4820;50.870;4.702;2022-09-03T20:42:35;22.10;99.90
9564;DHT22;4820;50.870;4.702;2022-09-03T20:45:17;22.10;99.90
9564;DHT22;4820;50.870;4.702;2022-09-03T20:47:53;22.20;99.90
9564;DHT22;4820;50.870;4.702;2022-09-03T20:55:51;22.10;99.90
9564;DHT22;4820;50.870;4.702;2022-09-03T21:01:44;22.00;99.90
9564;DHT22;4820;50.870;4.702;2022-09-03T21:04:33;22.00;99.90
9564;DHT22;4820;50.870;4.702;2022-09-03T21:16:11;21.60;99.90
9564;DHT22;4820;50.870;4.702;2022-09-03T21:19:07;21.40;99.90
9564;DHT22;4820;50.870;4.702;2022-09-03T21:24:50;21.40;99.90
9564;DHT22;4820;50.870;4.702;2022-09-03T21:27:36;21.30;99.90
9564;DHT22;4820;50.870;4.702;2022-09-03T21:30:07;21.30;99.90
9564;DHT22;4820;50.870;4.702;2022-09-03T21:32:47;21.30;99.90
9564;DHT22;4820;50.870;4.702;2022-09-03T21:40:28;21.30;99.90
9564;DHT22;4820;50.870;4.702;2022-09-03T21:43:07;21.20;99.90
9564;DHT22;4820;50.870;4.702;2022-09-03T21:45:57;21.20;99.90
9564;DHT22;4820;50.870;4.702;2022-09-03T21:48:33;21.20;99.90
9564;DHT22;4820;50.870;4.702;2022-09-03T21:51:03;21.30;99.90
9564;DHT22;4820;50.870;4.702;2022-09-03T21:53:45;21.30;99.90
9564;DHT22;4820;50.870;4.702;2022-09-03T22:02:00;21.20;99.90
9564;DHT22;4820;50.870;4.702;2022-09-03T22:04:27;21.20;99.90
9564;DHT22;4820;50.870;4.702;2022-09-03T22:07:12;21.10;99.90
9564;DHT22;4820;50.870;4.702;2022-09-03T22:12:47;21.10;99.90
9564;DHT22;4820;50.870;4.702;2022-09-03T22:15:17;21.10;99.90
9564;DHT22;4820;50.870;4.702;2022-09-03T22:17:57;21.00;99.90
9564;DHT22;4820;50.870;4.702;2022-09-03T22:20:27;21.00;99.90
9564;DHT22;4820;50.870;4.702;2022-09-03T22:22:54;20.90;99.90
9564;DHT22;4820;50.870;4.702;2022-09-03T22:30:54;20.60;99.90
9564;DHT22;4820;50.870;4.702;2022-09-03T22:33:31;20.50;99.90
9564;DHT22;4820;50.870;4.702;2022-09-03T22:36:08;20.50;99.90
9564;DHT22;4820;50.870;4.702;2022-09-03T22:44:41;20.50;99.90
9564;DHT22;4820;50.870;4.702;2022-09-03T22:52:33;20.20;99.90
9564;DHT22;4820;50.870;4.702;2022-09-03T22:58:00;20.10;99.90
9564;DHT22;4820;50.870;4.702;2022-09-03T23:00:24;20.10;99.90
9564;DHT22;4820;50.870;4.702;2022-09-03T23:03:08;20.00;99.90
9564;DHT22;4820;50.870;4.702;2022-09-03T23:05:44;20.00;99.90
9564;DHT22;4820;50.870;4.702;2022-09-03T23:08:28;20.00;99.90
9564;DHT22;4820;50.870;4.702;2022-09-03T23:11:26;20.00;99.90
9564;DHT22;4820;50.870;4.702;2022-09-03T23:14:07;20.10;99.90
9564;DHT22;4820;50.870;4.702;2022-09-03T23:16:46;20.00;99.90
9564;DHT22;4820;50.870;4.702;2022-09-03T23:21:57;19.90;99.90
9564;DHT22;4820;50.870;4.702;2022-09-03T23:24:31;19.90;99.90
9564;DHT22;4820;50.870;4.702;2022-09-03T23:27:03;19.80;99.90